sensor_id;sensor_type;location;lat;lon;timestamp;temperature;humidity
67093;SHT31;54011;50.772;7.730;2023-02-03T00:01:22;7.90;93.67
67093;SHT31;54011;50.772;7.730;2023-02-03T00:03:48;7.89;93.87
67093;SHT31;54011;50.772;7.730;2023-02-03T00:06:14;7.93;93.17
67093;SHT31;54011;50.772;7.730;2023-02-03T00:08:39;7.91;93.44
67093;SHT31;54011;50.772;7.730;2023-02-03T00:11:08;7.90;93.44
67093;SHT31;54011;50.772;7.730;2023-02-03T00:13:34;7.97;92.82
67093;SHT31;54011;50.772;7.730;2023-02-03T00:15:59;7.94;93.38
67093;SHT31;54011;50.772;7.730;2023-02-03T00:18:26;7.93;93.27
67093;SHT31;54011;50.772;7.730;2023-02-03T00:20:52;7.93;93.14
67093;SHT31;54011;50.772;7.730;2023-02-03T00:23:17;7.91;93.15
67093;SHT31;54011;50.772;7.730;2023-02-03T00:25:43;7.94;93.19
67093;SHT31;54011;50.772;7.730;2023-02-03T00:28:08;7.94;92.62
67093;SHT31;54011;50.772;7.730;2023-02-03T00:30:34;7.94;92.83
67093;SHT31;54011;50.772;7.730;2023-02-03T00:33:02;7.96;92.38
67093;SHT31;54011;50.772;7.730;2023-02-03T00:35:28;8.01;92.99
67093;SHT31;54011;50.772;7.730;2023-02-03T00:37:55;7.91;92.99
67093;SHT31;54011;50.772;7.730;2023-02-03T00:40:25;7.97;92.76
67093;SHT31;54011;50.772;7.730;2023-02-03T00:42:50;7.91;92.85
67093;SHT31;54011;50.772;7.730;2023-02-03T00:45:16;7.94;92.37
67093;SHT31;54011;50.772;7.730;2023-02-03T00:47:43;7.93;92.47
67093;SHT31;54011;50.772;7.730;2023-02-03T00:50:09;7.85;93.64
67093;SHT31;54011;50.772;7.730;2023-02-03T00:52:35;7.79;94.12
67093;SHT31;54011;50.772;7.730;2023-02-03T00:55:03;7.79;94.27
67093;SHT31;54011;50.772;7.730;2023-02-03T00:57:28;7.67;94.96
67093;SHT31;54011;50.772;7.730;2023-02-03T00:59:54;7.65;95.29
67093;SHT31;54011;50.772;7.730;2023-02-03T01:02:24;7.65;95.39
67093;SHT31;54011;50.772;7.730;2023-02-03T01:04:51;7.63;95.41
67093;SHT31;54011;50.772;7.730;2023-02-03T01:07:17;7.63;95.73
67093;SHT31;54011;50.772;7.730;2023-02-03T01:09:46;7.65;95.79
67093;SHT31;54011;50.772;7.730;2023-02-03T01:12:11;7.65;95.87
67093;SHT31;54011;50.772;7.730;2023-02-03T01:14:38;7.61;95.39
67093;SHT31;54011;50.772;7.730;2023-02-03T01:17:04;7.62;95.38
67093;SHT31;54011;50.772;7.730;2023-02-03T01:19:32;7.72;94.86
67093;SHT31;54011;50.772;7.730;2023-02-03T01:21:57;7.72;94.43
67093;SHT31;54011;50.772;7.730;2023-02-03T01:24:24;7.75;94.66
67093;SHT31;54011;50.772;7.730;2023-02-03T01:26:50;7.70;94.86
67093;SHT31;54011;50.772;7.730;2023-02-03T01:29:15;7.72;94.51
67093;SHT31;54011;50.772;7.730;2023-02-03T01:31:41;7.76;94.25
67093;SHT31;54011;50.772;7.730;2023-02-03T01:34:10;7.79;93.86
67093;SHT31;54011;50.772;7.730;2023-02-03T01:36:40;7.83;93.56
67093;SHT31;54011;50.772;7.730;2023-02-03T01:39:07;7.85;93.61
67093;SHT31;54011;50.772;7.730;2023-02-03T01:41:35;7.87;93.71
67093;SHT31;54011;50.772;7.730;2023-02-03T01:44:39;7.89;92.86
67093;SHT31;54011;50.772;7.730;2023-02-03T01:49:41;7.96;91.99
67093;SHT31;54011;50.772;7.730;2023-02-03T01:52:09;7.97;92.55
67093;SHT31;54011;50.772;7.730;2023-02-03T01:54:39;7.91;93.20
67093;SHT31;54011;50.772;7.730;2023-02-03T01:57:14;7.90;92.35
67093;SHT31;54011;50.772;7.730;2023-02-03T01:59:40;8.03;92.00
67093;SHT31;54011;50.772;7.730;2023-02-03T02:02:07;8.01;91.90
67093;SHT31;54011;50.772;7.730;2023-02-03T02:04:48;8.04;91.77
67093;SHT31;54011;50.772;7.730;2023-02-03T02:07:15;8.03;91.54
67093;SHT31;54011;50.772;7.730;2023-02-03T02:09:42;8.03;91.48
67093;SHT31;54011;50.772;7.730;2023-02-03T02:12:10;8.03;91.61
67093;SHT31;54011;50.772;7.730;2023-02-03T02:14:38;8.00;91.64
67093;SHT31;54011;50.772;7.730;2023-02-03T02:17:21;8.00;91.22
67093;SHT31;54011;50.772;7.730;2023-02-03T02:25:56;7.97;91.64
67093;SHT31;54011;50.772;7.730;2023-02-03T02:40:30;8.13;90.72
67093;SHT31;54011;50.772;7.730;2023-02-03T02:43:09;8.11;90.33
67093;SHT31;54011;50.772;7.730;2023-02-03T02:45:59;8.11;90.39
67093;SHT31;54011;50.772;7.730;2023-02-03T02:48:43;8.14;90.47
67093;SHT31;54011;50.772;7.730;2023-02-03T02:51:12;8.10;90.68
67093;SHT31;54011;50.772;7.730;2023-02-03T02:53:44;8.10;90.70
67093;SHT31;54011;50.772;7.730;2023-02-03T02:56:13;8.10;91.37
67093;SHT31;54011;50.772;7.730;2023-02-03T02:58:42;8.08;90.61
67093;SHT31;54011;50.772;7.730;2023-02-03T03:01:12;8.14;90.21
67093;SHT31;54011;50.772;7.730;2023-02-03T03:03:38;8.16;90.14
67093;SHT31;54011;50.772;7.730;2023-02-03T03:06:31;8.18;89.72
67093;SHT31;54011;50.772;7.730;2023-02-03T03:09:13;8.23;89.45
67093;SHT31;54011;50.772;7.730;2023-02-03T03:12:03;8.21;89.94
67093;SHT31;54011;50.772;7.730;2023-02-03T03:14:32;8.23;90.24
67093;SHT31;54011;50.772;7.730;2023-02-03T03:17:04;8.23;90.18
67093;SHT31;54011;50.772;7.730;2023-02-03T03:19:33;8.20;89.75
67093;SHT31;54011;50.772;7.730;2023-02-03T03:22:03;8.26;89.50
67093;SHT31;54011;50.772;7.730;2023-02-03T03:24:42;8.26;89.82
67093;SHT31;54011;50.772;7.730;2023-02-03T03:27:22;8.17;90.31
67093;SHT31;54011;50.772;7.730;2023-02-03T03:30:02;8.18;89.98
67093;SHT31;54011;50.772;7.730;2023-02-03T03:32:29;8.18;89.87
67093;SHT31;54011;50.772;7.730;2023-02-03T03:34:59;8.17;89.61
67093;SHT31;54011;50.772;7.730;2023-02-03T03:39:57;8.17;89.10
67093;SHT31;54011;50.772;7.730;2023-02-03T03:42:49;8.13;89.32
67093;SHT31;54011;50.772;7.730;2023-02-03T03:45:36;8.11;89.23
67093;SHT31;54011;50.772;7.730;2023-02-03T03:48:06;8.20;88.89
67093;SHT31;54011;50.772;7.730;2023-02-03T03:50:36;8.17;88.73
67093;SHT31;54011;50.772;7.730;2023-02-03T03:53:05;8.08;89.52
67093;SHT31;54011;50.772;7.730;2023-02-03T03:55:33;8.01;90.39
67093;SHT31;54011;50.772;7.730;2023-02-03T03:58:07;8.00;90.17
67093;SHT31;54011;50.772;7.730;2023-02-03T04:00:36;7.94;90.12
67093;SHT31;54011;50.772;7.730;2023-02-03T04:03:10;7.94;90.39
67093;SHT31;54011;50.772;7.730;2023-02-03T04:05:40;7.93;90.32
67093;SHT31;54011;50.772;7.730;2023-02-03T04:08:10;7.94;90.42
67093;SHT31;54011;50.772;7.730;2023-02-03T04:11:01;7.91;89.89
67093;SHT31;54011;50.772;7.730;2023-02-03T04:13:28;7.91;90.66
67093;SHT31;54011;50.772;7.730;2023-02-03T04:15:53;7.93;89.95
67093;SHT31;54011;50.772;7.730;2023-02-03T04:18:20;7.98;89.79
67093;SHT31;54011;50.772;7.730;2023-02-03T04:20:46;8.01;89.61
67093;SHT31;54011;50.772;7.730;2023-02-03T04:23:11;8.04;89.11
67093;SHT31;54011;50.772;7.730;2023-02-03T04:25:37;8.10;89.42
67093;SHT31;54011;50.772;7.730;2023-02-03T04:28:02;8.07;88.88
67093;SHT31;54011;50.772;7.730;2023-02-03T04:30:30;8.14;88.96
67093;SHT31;54011;50.772;7.730;2023-02-03T04:32:57;8.17;88.88
67093;SHT31;54011;50.772;7.730;2023-02-03T04:35:22;8.16;88.54
67093;SHT31;54011;50.772;7.730;2023-02-03T04:37:48;8.17;88.72
67093;SHT31;54011;50.772;7.730;2023-02-03T04:40:18;8.14;89.08
67093;SHT31;54011;50.772;7.730;2023-02-03T04:42:44;8.18;88.68
67093;SHT31;54011;50.772;7.730;2023-02-03T04:45:17;8.13;89.10
67093;SHT31;54011;50.772;7.730;2023-02-03T04:47:50;8.10;88.92
67093;SHT31;54011;50.772;7.730;2023-02-03T04:50:18;8.14;89.04
67093;SHT31;54011;50.772;7.730;2023-02-03T04:52:44;8.10;89.17
67093;SHT31;54011;50.772;7.730;2023-02-03T04:55:09;8.11;89.32
67093;SHT31;54011;50.772;7.730;2023-02-03T04:57:34;8.08;88.90
67093;SHT31;54011;50.772;7.730;2023-02-03T05:00:00;8.11;89.35
67093;SHT31;54011;50.772;7.730;2023-02-03T05:02:25;8.11;89.04
67093;SHT31;54011;50.772;7.730;2023-02-03T05:04:52;8.10;89.53
67093;SHT31;54011;50.772;7.730;2023-02-03T05:07:18;8.18;89.11
67093;SHT31;54011;50.772;7.730;2023-02-03T05:09:43;8.21;89.00
67093;SHT31;54011;50.772;7.730;2023-02-03T05:12:09;8.23;88.56
67093;SHT31;54011;50.772;7.730;2023-02-03T05:14:34;8.23;88.96
67093;SHT31;54011;50.772;7.730;2023-02-03T05:16:59;8.17;88.82
67093;SHT31;54011;50.772;7.730;2023-02-03T05:19:25;8.10;88.69
67093;SHT31;54011;50.772;7.730;2023-02-03T05:21:50;8.24;88.33
67093;SHT31;54011;50.772;7.730;2023-02-03T05:24:15;8.21;88.32
67093;SHT31;54011;50.772;7.730;2023-02-03T05:26:42;8.23;88.44
67093;SHT31;54011;50.772;7.730;2023-02-03T05:29:12;8.24;88.52
67093;SHT31;54011;50.772;7.730;2023-02-03T05:31:38;8.16;88.32
67093;SHT31;54011;50.772;7.730;2023-02-03T05:34:05;8.20;88.41
67093;SHT31;54011;50.772;7.730;2023-02-03T05:36:32;8.17;88.52
67093;SHT31;54011;50.772;7.730;2023-02-03T05:39:43;8.23;87.96
67093;SHT31;54011;50.772;7.730;2023-02-03T05:42:09;8.16;88.09
67093;SHT31;54011;50.772;7.730;2023-02-03T05:44:34;8.20;87.99
67093;SHT31;54011;50.772;7.730;2023-02-03T05:47:00;8.14;88.16
67093;SHT31;54011;50.772;7.730;2023-02-03T05:49:26;8.24;87.68
67093;SHT31;54011;50.772;7.730;2023-02-03T05:51:53;8.28;87.11
67093;SHT31;54011;50.772;7.730;2023-02-03T05:54:21;8.24;87.76
67093;SHT31;54011;50.772;7.730;2023-02-03T05:56:48;8.18;87.74
67093;SHT31;54011;50.772;7.730;2023-02-03T05:59:15;8.20;87.55
67093;SHT31;54011;50.772;7.730;2023-02-03T06:01:40;8.26;87.81
67093;SHT31;54011;50.772;7.730;2023-02-03T06:04:06;8.21;87.59
67093;SHT31;54011;50.772;7.730;2023-02-03T06:06:36;8.27;87.41
67093;SHT31;54011;50.772;7.730;2023-02-03T06:09:04;8.26;87.59
67093;SHT31;54011;50.772;7.730;2023-02-03T06:11:31;8.20;87.68
67093;SHT31;54011;50.772;7.730;2023-02-03T06:13:57;8.21;87.55
67093;SHT31;54011;50.772;7.730;2023-02-03T06:16:25;8.31;87.22
67093;SHT31;54011;50.772;7.730;2023-02-03T06:18:52;8.26;87.40
67093;SHT31;54011;50.772;7.730;2023-02-03T06:21:20;8.28;87.25
67093;SHT31;54011;50.772;7.730;2023-02-03T06:23:46;8.30;87.10
67093;SHT31;54011;50.772;7.730;2023-02-03T06:26:13;8.26;87.41
67093;SHT31;54011;50.772;7.730;2023-02-03T06:28:38;8.27;87.38
67093;SHT31;54011;50.772;7.730;2023-02-03T06:31:04;8.27;87.06
67093;SHT31;54011;50.772;7.730;2023-02-03T06:33:30;8.27;86.88
67093;SHT31;54011;50.772;7.730;2023-02-03T06:35:56;8.30;87.06
67093;SHT31;54011;50.772;7.730;2023-02-03T06:38:46;8.26;87.09
67093;SHT31;54011;50.772;7.730;2023-02-03T06:41:12;8.30;87.27
67093;SHT31;54011;50.772;7.730;2023-02-03T06:43:37;8.23;87.35
67093;SHT31;54011;50.772;7.730;2023-02-03T06:46:05;8.31;87.09
67093;SHT31;54011;50.772;7.730;2023-02-03T06:48:31;8.23;87.04
67093;SHT31;54011;50.772;7.730;2023-02-03T06:50:57;8.27;86.90
67093;SHT31;54011;50.772;7.730;2023-02-03T06:53:22;8.33;86.71
67093;SHT31;54011;50.772;7.730;2023-02-03T06:55:48;8.34;86.52
67093;SHT31;54011;50.772;7.730;2023-02-03T06:58:14;8.37;86.75
67093;SHT31;54011;50.772;7.730;2023-02-03T07:00:39;8.33;86.64
67093;SHT31;54011;50.772;7.730;2023-02-03T07:03:09;8.34;86.61
67093;SHT31;54011;50.772;7.730;2023-02-03T07:05:35;8.33;87.08
67093;SHT31;54011;50.772;7.730;2023-02-03T07:08:01;8.20;87.13
67093;SHT31;54011;50.772;7.730;2023-02-03T07:10:27;8.30;86.74
67093;SHT31;54011;50.772;7.730;2023-02-03T07:12:52;8.27;86.92
67093;SHT31;54011;50.772;7.730;2023-02-03T07:15:18;8.33;86.82
67093;SHT31;54011;50.772;7.730;2023-02-03T07:17:48;8.38;85.94
67093;SHT31;54011;50.772;7.730;2023-02-03T07:20:22;8.35;86.84
67093;SHT31;54011;50.772;7.730;2023-02-03T07:23:02;8.41;86.50
67093;SHT31;54011;50.772;7.730;2023-02-03T07:48:50;8.41;85.90
67093;SHT31;54011;50.772;7.730;2023-02-03T07:51:21;8.47;85.83
67093;SHT31;54011;50.772;7.730;2023-02-03T07:54:07;8.48;86.42
67093;SHT31;54011;50.772;7.730;2023-02-03T07:56:33;8.44;86.13
67093;SHT31;54011;50.772;7.730;2023-02-03T08:15:38;8.51;85.51
67093;SHT31;54011;50.772;7.730;2023-02-03T08:21:59;8.57;85.28
67093;SHT31;54011;50.772;7.730;2023-02-03T08:28:14;8.48;86.21
67093;SHT31;54011;50.772;7.730;2023-02-03T08:31:18;8.54;86.21
67093;SHT31;54011;50.772;7.730;2023-02-03T08:33:49;8.47;86.78
67093;SHT31;54011;50.772;7.730;2023-02-03T08:36:44;8.47;86.75
67093;SHT31;54011;50.772;7.730;2023-02-03T08:40:09;8.47;86.82
67093;SHT31;54011;50.772;7.730;2023-02-03T08:43:39;8.44;86.99
67093;SHT31;54011;50.772;7.730;2023-02-03T08:58:39;8.16;90.46
67093;SHT31;54011;50.772;7.730;2023-02-03T09:08:48;7.87;92.71
67093;SHT31;54011;50.772;7.730;2023-02-03T09:11:16;7.83;93.90
67093;SHT31;54011;50.772;7.730;2023-02-03T09:13:43;7.89;93.42
67093;SHT31;54011;50.772;7.730;2023-02-03T09:16:12;7.86;93.85
67093;SHT31;54011;50.772;7.730;2023-02-03T09:18:38;7.87;93.53
67093;SHT31;54011;50.772;7.730;2023-02-03T09:21:09;7.90;93.52
67093;SHT31;54011;50.772;7.730;2023-02-03T09:23:38;7.90;93.91
67093;SHT31;54011;50.772;7.730;2023-02-03T09:26:15;7.96;94.07
67093;SHT31;54011;50.772;7.730;2023-02-03T09:28:43;7.89;94.05
67093;SHT31;54011;50.772;7.730;2023-02-03T09:31:11;7.90;94.01
67093;SHT31;54011;50.772;7.730;2023-02-03T09:33:38;7.82;94.52
67093;SHT31;54011;50.772;7.730;2023-02-03T09:36:06;7.85;94.84
67093;SHT31;54011;50.772;7.730;2023-02-03T09:38:35;7.77;95.39
67093;SHT31;54011;50.772;7.730;2023-02-03T09:43:46;7.72;96.12
67093;SHT31;54011;50.772;7.730;2023-02-03T09:48:55;7.72;95.58
67093;SHT31;54011;50.772;7.730;2023-02-03T09:51:43;7.76;96.08
67093;SHT31;54011;50.772;7.730;2023-02-03T09:54:36;7.83;95.89
67093;SHT31;54011;50.772;7.730;2023-02-03T09:57:14;7.85;95.91
67093;SHT31;54011;50.772;7.730;2023-02-03T09:59:42;7.79;95.91
67093;SHT31;54011;50.772;7.730;2023-02-03T10:05:10;7.80;96.65
67093;SHT31;54011;50.772;7.730;2023-02-03T10:13:12;7.82;96.90
67093;SHT31;54011;50.772;7.730;2023-02-03T10:16:01;7.85;96.83
67093;SHT31;54011;50.772;7.730;2023-02-03T10:18:33;7.86;96.57
67093;SHT31;54011;50.772;7.730;2023-02-03T10:21:03;7.89;96.70
67093;SHT31;54011;50.772;7.730;2023-02-03T10:23:40;7.89;96.46
67093;SHT31;54011;50.772;7.730;2023-02-03T10:26:13;7.93;96.55
67093;SHT31;54011;50.772;7.730;2023-02-03T10:28:50;7.90;95.64
67093;SHT31;54011;50.772;7.730;2023-02-03T10:31:22;7.94;95.69
67093;SHT31;54011;50.772;7.730;2023-02-03T10:34:14;8.06;95.37
67093;SHT31;54011;50.772;7.730;2023-02-03T11:03:33;8.23;94.12
67093;SHT31;54011;50.772;7.730;2023-02-03T11:06:33;8.27;94.43
67093;SHT31;54011;50.772;7.730;2023-02-03T11:18:04;8.35;93.43
67093;SHT31;54011;50.772;7.730;2023-02-03T11:27:22;8.45;93.83
67093;SHT31;54011;50.772;7.730;2023-02-03T11:46:00;8.44;93.87
67093;SHT31;54011;50.772;7.730;2023-02-03T16:57:01;7.65;93.22
67093;SHT31;54011;50.772;7.730;2023-02-03T16:59:41;7.58;93.94
67093;SHT31;54011;50.772;7.730;2023-02-03T17:02:16;7.52;93.47
67093;SHT31;54011;50.772;7.730;2023-02-03T17:05:37;7.52;93.88
67093;SHT31;54011;50.772;7.730;2023-02-03T17:08:47;7.55;93.61
67093;SHT31;54011;50.772;7.730;2023-02-03T17:11:15;7.54;94.28
67093;SHT31;54011;50.772;7.730;2023-02-03T17:13:49;7.59;94.02
67093;SHT31;54011;50.772;7.730;2023-02-03T17:21:12;7.54;93.74
67093;SHT31;54011;50.772;7.730;2023-02-03T17:24:06;7.55;92.96
67093;SHT31;54011;50.772;7.730;2023-02-03T17:27:19;7.52;92.65
67093;SHT31;54011;50.772;7.730;2023-02-03T17:30:28;7.55;93.17
67093;SHT31;54011;50.772;7.730;2023-02-03T17:33:36;7.49;93.24
67093;SHT31;54011;50.772;7.730;2023-02-03T17:36:36;7.48;93.10
67093;SHT31;54011;50.772;7.730;2023-02-03T17:53:28;7.51;93.03
67093;SHT31;54011;50.772;7.730;2023-02-03T17:56:11;7.52;92.53
67093;SHT31;54011;50.772;7.730;2023-02-03T17:58:37;7.48;92.52
67093;SHT31;54011;50.772;7.730;2023-02-03T18:01:17;7.44;92.52
67093;SHT31;54011;50.772;7.730;2023-02-03T18:03:44;7.56;92.58
67093;SHT31;54011;50.772;7.730;2023-02-03T18:06:12;7.48;92.97
67093;SHT31;54011;50.772;7.730;2023-02-03T18:08:40;7.48;92.83
67093;SHT31;54011;50.772;7.730;2023-02-03T18:11:06;7.42;92.53
67093;SHT31;54011;50.772;7.730;2023-02-03T18:13:38;7.48;92.34
67093;SHT31;54011;50.772;7.730;2023-02-03T18:16:11;7.52;91.87
67093;SHT31;54011;50.772;7.730;2023-02-03T18:18:37;7.48;91.46
67093;SHT31;54011;50.772;7.730;2023-02-03T18:21:08;7.52;91.84
67093;SHT31;54011;50.772;7.730;2023-02-03T18:23:37;7.46;92.00
67093;SHT31;54011;50.772;7.730;2023-02-03T18:26:05;7.48;92.39
67093;SHT31;54011;50.772;7.730;2023-02-03T18:28:32;7.48;92.37
67093;SHT31;54011;50.772;7.730;2023-02-03T18:31:02;7.55;92.27
67093;SHT31;54011;50.772;7.730;2023-02-03T18:33:28;7.49;92.28
67093;SHT31;54011;50.772;7.730;2023-02-03T18:35:56;7.52;92.72
67093;SHT31;54011;50.772;7.730;2023-02-03T18:38:24;7.41;92.75
67093;SHT31;54011;50.772;7.730;2023-02-03T18:40:49;7.51;92.04
67093;SHT31;54011;50.772;7.730;2023-02-03T18:43:15;7.54;92.22
67093;SHT31;54011;50.772;7.730;2023-02-03T18:45:40;7.49;92.61
67093;SHT31;54011;50.772;7.730;2023-02-03T18:48:06;7.45;92.38
67093;SHT31;54011;50.772;7.730;2023-02-03T18:50:31;7.44;92.79
67093;SHT31;54011;50.772;7.730;2023-02-03T18:52:58;7.41;92.60
67093;SHT31;54011;50.772;7.730;2023-02-03T18:55:25;7.46;92.68
67093;SHT31;54011;50.772;7.730;2023-02-03T18:57:52;7.38;92.48
67093;SHT31;54011;50.772;7.730;2023-02-03T19:00:19;7.44;91.68
67093;SHT31;54011;50.772;7.730;2023-02-03T19:02:47;7.51;91.40
67093;SHT31;54011;50.772;7.730;2023-02-03T19:05:16;7.46;92.08
67093;SHT31;54011;50.772;7.730;2023-02-03T19:07:41;7.49;91.03
67093;SHT31;54011;50.772;7.730;2023-02-03T19:10:07;7.63;90.92
67093;SHT31;54011;50.772;7.730;2023-02-03T19:12:32;7.45;91.54
67093;SHT31;54011;50.772;7.730;2023-02-03T19:14:57;7.42;91.52
67093;SHT31;54011;50.772;7.730;2023-02-03T19:17:23;7.36;91.81
67093;SHT31;54011;50.772;7.730;2023-02-03T19:19:50;7.41;92.04
67093;SHT31;54011;50.772;7.730;2023-02-03T19:22:18;7.34;92.31
67093;SHT31;54011;50.772;7.730;2023-02-03T19:24:43;7.29;92.62
67093;SHT31;54011;50.772;7.730;2023-02-03T19:27:10;7.17;93.15
67093;SHT31;54011;50.772;7.730;2023-02-03T19:29:35;7.15;93.28
67093;SHT31;54011;50.772;7.730;2023-02-03T19:32:03;7.19;93.20
67093;SHT31;54011;50.772;7.730;2023-02-03T19:34:28;7.17;93.61
67093;SHT31;54011;50.772;7.730;2023-02-03T19:36:54;7.26;93.33
67093;SHT31;54011;50.772;7.730;2023-02-03T19:39:19;7.29;93.30
67093;SHT31;54011;50.772;7.730;2023-02-03T19:41:46;7.35;93.27
67093;SHT31;54011;50.772;7.730;2023-02-03T19:44:13;7.31;93.35
67093;SHT31;54011;50.772;7.730;2023-02-03T19:46:40;7.21;93.47
67093;SHT31;54011;50.772;7.730;2023-02-03T19:49:12;7.19;93.84
67093;SHT31;54011;50.772;7.730;2023-02-03T19:51:42;7.18;93.76
67093;SHT31;54011;50.772;7.730;2023-02-03T19:54:12;7.15;93.90
67093;SHT31;54011;50.772;7.730;2023-02-03T19:56:38;7.14;93.72
67093;SHT31;54011;50.772;7.730;2023-02-03T19:59:05;7.14;93.34
67093;SHT31;54011;50.772;7.730;2023-02-03T20:01:31;7.07;93.35
67093;SHT31;54011;50.772;7.730;2023-02-03T20:03:58;7.08;93.36
67093;SHT31;54011;50.772;7.730;2023-02-03T20:06:26;7.09;93.27
67093;SHT31;54011;50.772;7.730;2023-02-03T20:08:53;7.07;93.10
67093;SHT31;54011;50.772;7.730;2023-02-03T20:11:30;7.09;92.67
67093;SHT31;54011;50.772;7.730;2023-02-03T20:13:55;7.04;92.68
67093;SHT31;54011;50.772;7.730;2023-02-03T20:16:21;7.01;92.17
67093;SHT31;54011;50.772;7.730;2023-02-03T20:18:46;7.01;92.42
67093;SHT31;54011;50.772;7.730;2023-02-03T20:21:12;7.07;91.61
67093;SHT31;54011;50.772;7.730;2023-02-03T20:23:44;7.09;91.45
67093;SHT31;54011;50.772;7.730;2023-02-03T20:26:11;7.21;90.98
67093;SHT31;54011;50.772;7.730;2023-02-03T20:28:36;7.09;91.09
67093;SHT31;54011;50.772;7.730;2023-02-03T20:31:05;7.19;90.82
67093;SHT31;54011;50.772;7.730;2023-02-03T20:33:32;7.26;90.33
67093;SHT31;54011;50.772;7.730;2023-02-03T20:35:57;7.18;90.76
67093;SHT31;54011;50.772;7.730;2023-02-03T20:38:23;7.09;90.58
67093;SHT31;54011;50.772;7.730;2023-02-03T20:40:48;7.09;90.15
67093;SHT31;54011;50.772;7.730;2023-02-03T20:43:20;7.07;90.53
67093;SHT31;54011;50.772;7.730;2023-02-03T20:45:48;7.09;89.94
67093;SHT31;54011;50.772;7.730;2023-02-03T20:48:15;7.09;90.29
67093;SHT31;54011;50.772;7.730;2023-02-03T20:50:42;7.14;90.50
67093;SHT31;54011;50.772;7.730;2023-02-03T20:53:16;7.11;90.22
67093;SHT31;54011;50.772;7.730;2023-02-03T20:55:41;7.08;89.86
67093;SHT31;54011;50.772;7.730;2023-02-03T21:00:46;7.18;89.38
67093;SHT31;54011;50.772;7.730;2023-02-03T21:03:13;7.22;89.16
67093;SHT31;54011;50.772;7.730;2023-02-03T21:05:57;7.32;89.25
67093;SHT31;54011;50.772;7.730;2023-02-03T21:08:22;7.25;89.73
67093;SHT31;54011;50.772;7.730;2023-02-03T21:10:49;7.19;89.04
67093;SHT31;54011;50.772;7.730;2023-02-03T21:15:47;7.25;88.99
67093;SHT31;54011;50.772;7.730;2023-02-03T21:18:33;7.34;88.09
67093;SHT31;54011;50.772;7.730;2023-02-03T21:21:01;7.31;88.53
67093;SHT31;54011;50.772;7.730;2023-02-03T21:23:36;7.28;89.06
67093;SHT31;54011;50.772;7.730;2023-02-03T21:28:47;7.24;88.47
67093;SHT31;54011;50.772;7.730;2023-02-03T21:31:21;7.35;89.14
67093;SHT31;54011;50.772;7.730;2023-02-03T21:33:46;7.32;88.38
67093;SHT31;54011;50.772;7.730;2023-02-03T21:36:20;7.38;88.51
67093;SHT31;54011;50.772;7.730;2023-02-03T21:38:52;7.28;88.16
67093;SHT31;54011;50.772;7.730;2023-02-03T21:41:20;7.41;87.87
67093;SHT31;54011;50.772;7.730;2023-02-03T21:43:49;7.29;88.63
67093;SHT31;54011;50.772;7.730;2023-02-03T21:46:18;7.31;88.63
67093;SHT31;54011;50.772;7.730;2023-02-03T21:48:45;7.18;88.75
67093;SHT31;54011;50.772;7.730;2023-02-03T21:51:20;7.25;88.74
67093;SHT31;54011;50.772;7.730;2023-02-03T21:53:55;7.18;88.94
67093;SHT31;54011;50.772;7.730;2023-02-03T21:56:36;7.11;89.38
67093;SHT31;54011;50.772;7.730;2023-02-03T21:59:17;7.14;88.71
67093;SHT31;54011;50.772;7.730;2023-02-03T22:01:43;7.15;88.69
67093;SHT31;54011;50.772;7.730;2023-02-03T22:04:08;7.15;89.63
67093;SHT31;54011;50.772;7.730;2023-02-03T22:06:45;7.18;88.65
67093;SHT31;54011;50.772;7.730;2023-02-03T22:09:17;7.19;88.15
67093;SHT31;54011;50.772;7.730;2023-02-03T22:11:43;7.22;88.41
67093;SHT31;54011;50.772;7.730;2023-02-03T22:14:11;7.24;88.43
67093;SHT31;54011;50.772;7.730;2023-02-03T22:16:37;7.29;87.84
67093;SHT31;54011;50.772;7.730;2023-02-03T22:19:03;7.26;88.19
67093;SHT31;54011;50.772;7.730;2023-02-03T22:21:28;7.19;89.01
67093;SHT31;54011;50.772;7.730;2023-02-03T22:23:55;7.25;88.25
67093;SHT31;54011;50.772;7.730;2023-02-03T22:26:21;7.25;88.72
67093;SHT31;54011;50.772;7.730;2023-02-03T22:28:47;7.29;87.44
67093;SHT31;54011;50.772;7.730;2023-02-03T22:31:13;7.26;87.00
67093;SHT31;54011;50.772;7.730;2023-02-03T22:33:39;7.38;87.67
67093;SHT31;54011;50.772;7.730;2023-02-03T22:36:05;7.28;87.35
67093;SHT31;54011;50.772;7.730;2023-02-03T22:38:32;7.19;87.62
67093;SHT31;54011;50.772;7.730;2023-02-03T22:41:01;7.21;87.66
67093;SHT31;54011;50.772;7.730;2023-02-03T22:43:28;7.19;87.39
67093;SHT31;54011;50.772;7.730;2023-02-03T22:45:54;7.21;86.54
67093;SHT31;54011;50.772;7.730;2023-02-03T22:48:20;7.24;85.94
67093;SHT31;54011;50.772;7.730;2023-02-03T22:50:47;7.24;87.07
67093;SHT31;54011;50.772;7.730;2023-02-03T22:53:12;7.22;87.08
67093;SHT31;54011;50.772;7.730;2023-02-03T22:55:39;7.19;86.20
67093;SHT31;54011;50.772;7.730;2023-02-03T22:58:08;7.14;86.77
67093;SHT31;54011;50.772;7.730;2023-02-03T23:00:34;7.21;86.13
67093;SHT31;54011;50.772;7.730;2023-02-03T23:02:59;7.18;85.87
67093;SHT31;54011;50.772;7.730;2023-02-03T23:05:26;7.24;87.29
67093;SHT31;54011;50.772;7.730;2023-02-03T23:07:56;7.04;86.97
67093;SHT31;54011;50.772;7.730;2023-02-03T23:10:24;7.09;86.49
67093;SHT31;54011;50.772;7.730;2023-02-03T23:12:50;7.07;87.11
67093;SHT31;54011;50.772;7.730;2023-02-03T23:15:16;7.05;86.79
67093;SHT31;54011;50.772;7.730;2023-02-03T23:17:42;7.08;87.17
67093;SHT31;54011;50.772;7.730;2023-02-03T23:20:11;7.00;87.38
67093;SHT31;54011;50.772;7.730;2023-02-03T23:22:39;6.96;86.82
67093;SHT31;54011;50.772;7.730;2023-02-03T23:25:05;6.91;87.71
67093;SHT31;54011;50.772;7.730;2023-02-03T23:27:31;7.01;86.40
67093;SHT31;54011;50.772;7.730;2023-02-03T23:29:59;6.96;87.01
67093;SHT31;54011;50.772;7.730;2023-02-03T23:32:25;6.96;86.71
67093;SHT31;54011;50.772;7.730;2023-02-03T23:34:54;7.09;86.97
67093;SHT31;54011;50.772;7.730;2023-02-03T23:37:38;7.11;86.81
67093;SHT31;54011;50.772;7.730;2023-02-03T23:40:05;7.01;86.83
67093;SHT31;54011;50.772;7.730;2023-02-03T23:42:31;7.00;86.74
67093;SHT31;54011;50.772;7.730;2023-02-03T23:44:56;6.93;87.44
67093;SHT31;54011;50.772;7.730;2023-02-03T23:47:23;6.93;86.67
67093;SHT31;54011;50.772;7.730;2023-02-03T23:49:49;7.05;87.07
67093;SHT31;54011;50.772;7.730;2023-02-03T23:52:15;7.01;86.69
67093;SHT31;54011;50.772;7.730;2023-02-03T23:54:44;7.00;86.74
67093;SHT31;54011;50.772;7.730;2023-02-03T23:57:09;7.05;87.51
67093;SHT31;54011;50.772;7.730;2023-02-03T23:59:35;7.04;86.61
